sensor_id;sensor_type;location;lat;lon;timestamp;P1;P2;P0
37290;PMS5003;23175;-33.706;151.094;2022-07-29T00:01:15;0;0;
37290;PMS5003;23175;-33.706;151.094;2022-07-29T00:03:45;2;2;
37290;PMS5003;23175;-33.706;151.094;2022-07-29T00:06:15;3;1;
37290;PMS5003;23175;-33.706;151.094;2022-07-29T00:08:46;4;1;
37290;PMS5003;23175;-33.706;151.094;2022-07-29T00:11:15;3;3;
37290;PMS5003;23175;-33.706;151.094;2022-07-29T00:13:46;3;3;
37290;PMS5003;23175;-33.706;151.094;2022-07-29T00:16:16;3;3;
37290;PMS5003;23175;-33.706;151.094;2022-07-29T00:18:46;0;0;
37290;PMS5003;23175;-33.706;151.094;2022-07-29T00:21:17;2;1;
37290;PMS5003;23175;-33.706;151.094;2022-07-29T00:23:47;2;2;
37290;PMS5003;23175;-33.706;151.094;2022-07-29T00:26:18;2;1;
37290;PMS5003;23175;-33.706;151.094;2022-07-29T00:28:48;2;2;
37290;PMS5003;23175;-33.706;151.094;2022-07-29T00:31:19;3;2;
37290;PMS5003;23175;-33.706;151.094;2022-07-29T00:33:49;1;1;
37290;PMS5003;23175;-33.706;151.094;2022-07-29T00:36:19;3;1;
37290;PMS5003;23175;-33.706;151.094;2022-07-29T00:38:50;3;1;
37290;PMS5003;23175;-33.706;151.094;2022-07-29T00:41:20;3;1;
37290;PMS5003;23175;-33.706;151.094;2022-07-29T00:43:51;1;1;
37290;PMS5003;23175;-33.706;151.094;2022-07-29T00:46:21;4;2;
37290;PMS5003;23175;-33.706;151.094;2022-07-29T00:48:51;1;1;
37290;PMS5003;23175;-33.706;151.094;2022-07-29T00:51:22;2;2;
37290;PMS5003;23175;-33.706;151.094;2022-07-29T00:53:53;1;1;
37290;PMS5003;23175;-33.706;151.094;2022-07-29T00:56:22;3;2;
37290;PMS5003;23175;-33.706;151.094;2022-07-29T00:58:52;2;0;
37290;PMS5003;23175;-33.706;151.094;2022-07-29T01:01:24;2;1;
37290;PMS5003;23175;-33.706;151.094;2022-07-29T01:03:55;2;2;
37290;PMS5003;23175;-33.706;151.094;2022-07-29T01:06:25;1;1;
37290;PMS5003;23175;-33.706;151.094;2022-07-29T01:08:57;1;1;
37290;PMS5003;23175;-33.706;151.094;2022-07-29T01:11:27;3;1;
37290;PMS5003;23175;-33.706;151.094;2022-07-29T01:13:57;2;2;
37290;PMS5003;23175;-33.706;151.094;2022-07-29T01:16:29;1;0;
37290;PMS5003;23175;-33.706;151.094;2022-07-29T01:19:04;3;0;
37290;PMS5003;23175;-33.706;151.094;2022-07-29T01:21:46;2;1;
37290;PMS5003;23175;-33.706;151.094;2022-07-29T01:24:30;2;0;
37290;PMS5003;23175;-33.706;151.094;2022-07-29T01:27:22;1;1;
37290;PMS5003;23175;-33.706;151.094;2022-07-29T01:30:06;2;1;
37290;PMS5003;23175;-33.706;151.094;2022-07-29T01:32:38;3;2;
37290;PMS5003;23175;-33.706;151.094;2022-07-29T01:35:12;2;2;
37290;PMS5003;23175;-33.706;151.094;2022-07-29T01:37:50;0;0;
37290;PMS5003;23175;-33.706;151.094;2022-07-29T01:40:27;1;1;
37290;PMS5003;23175;-33.706;151.094;2022-07-29T01:43:06;1;1;
37290;PMS5003;23175;-33.706;151.094;2022-07-29T01:45:43;3;2;
37290;PMS5003;23175;-33.706;151.094;2022-07-29T01:48:20;3;3;
37290;PMS5003;23175;-33.706;151.094;2022-07-29T01:50:53;1;1;
37290;PMS5003;23175;-33.706;151.094;2022-07-29T01:53:30;3;3;
37290;PMS5003;23175;-33.706;151.094;2022-07-29T01:56:04;1;1;
37290;PMS5003;23175;-33.706;151.094;2022-07-29T01:58:36;4;2;
37290;PMS5003;23175;-33.706;151.094;2022-07-29T02:01:09;1;1;
37290;PMS5003;23175;-33.706;151.094;2022-07-29T02:03:42;1;1;
37290;PMS5003;23175;-33.706;151.094;2022-07-29T02:06:15;1;1;
37290;PMS5003;23175;-33.706;151.094;2022-07-29T02:08:50;4;1;
37290;PMS5003;23175;-33.706;151.094;2022-07-29T02:11:24;3;2;
37290;PMS5003;23175;-33.706;151.094;2022-07-29T02:13:55;4;2;
37290;PMS5003;23175;-33.706;151.094;2022-07-29T02:16:28;3;3;
37290;PMS5003;23175;-33.706;151.094;2022-07-29T02:19:02;3;2;
37290;PMS5003;23175;-33.706;151.094;2022-07-29T02:21:33;0;0;
37290;PMS5003;23175;-33.706;151.094;2022-07-29T02:24:03;6;2;
37290;PMS5003;23175;-33.706;151.094;2022-07-29T02:26:36;0;0;
37290;PMS5003;23175;-33.706;151.094;2022-07-29T02:29:09;4;2;
37290;PMS5003;23175;-33.706;151.094;2022-07-29T02:31:41;3;1;
37290;PMS5003;23175;-33.706;151.094;2022-07-29T02:34:13;1;1;
37290;PMS5003;23175;-33.706;151.094;2022-07-29T02:36:45;1;1;
37290;PMS5003;23175;-33.706;151.094;2022-07-29T02:39:15;3;1;
37290;PMS5003;23175;-33.706;151.094;2022-07-29T02:41:49;0;0;
37290;PMS5003;23175;-33.706;151.094;2022-07-29T02:44:23;0;0;
37290;PMS5003;23175;-33.706;151.094;2022-07-29T02:46:55;0;0;
37290;PMS5003;23175;-33.706;151.094;2022-07-29T02:49:34;1;1;
37290;PMS5003;23175;-33.706;151.094;2022-07-29T02:52:08;1;1;
37290;PMS5003;23175;-33.706;151.094;2022-07-29T02:54:44;2;1;
37290;PMS5003;23175;-33.706;151.094;2022-07-29T02:57:20;0;0;
37290;PMS5003;23175;-33.706;151.094;2022-07-29T02:59:57;0;0;
37290;PMS5003;23175;-33.706;151.094;2022-07-29T03:02:29;0;0;
37290;PMS5003;23175;-33.706;151.094;2022-07-29T03:05:05;2;1;
37290;PMS5003;23175;-33.706;151.094;2022-07-29T03:07:40;0;0;
37290;PMS5003;23175;-33.706;151.094;2022-07-29T03:10:11;0;0;
37290;PMS5003;23175;-33.706;151.094;2022-07-29T03:12:42;0;0;
37290;PMS5003;23175;-33.706;151.094;2022-07-29T03:15:13;3;2;
37290;PMS5003;23175;-33.706;151.094;2022-07-29T03:17:43;0;0;
37290;PMS5003;23175;-33.706;151.094;2022-07-29T03:20:14;0;0;
37290;PMS5003;23175;-33.706;151.094;2022-07-29T03:22:45;3;1;
37290;PMS5003;23175;-33.706;151.094;2022-07-29T03:25:16;1;1;
37290;PMS5003;23175;-33.706;151.094;2022-07-29T03:27:48;1;0;
37290;PMS5003;23175;-33.706;151.094;2022-07-29T03:30:19;1;1;
37290;PMS5003;23175;-33.706;151.094;2022-07-29T03:32:50;0;0;
37290;PMS5003;23175;-33.706;151.094;2022-07-29T03:35:21;1;1;
37290;PMS5003;23175;-33.706;151.094;2022-07-29T03:37:51;2;1;
37290;PMS5003;23175;-33.706;151.094;2022-07-29T03:40:24;1;1;
37290;PMS5003;23175;-33.706;151.094;2022-07-29T03:42:59;3;2;
37290;PMS5003;23175;-33.706;151.094;2022-07-29T03:45:31;1;1;
37290;PMS5003;23175;-33.706;151.094;2022-07-29T03:48:05;1;1;
37290;PMS5003;23175;-33.706;151.094;2022-07-29T03:50:38;0;0;
37290;PMS5003;23175;-33.706;151.094;2022-07-29T03:53:08;5;2;
37290;PMS5003;23175;-33.706;151.094;2022-07-29T03:55:40;2;1;
37290;PMS5003;23175;-33.706;151.094;2022-07-29T03:58:13;3;1;
37290;PMS5003;23175;-33.706;151.094;2022-07-29T04:00:44;1;1;
37290;PMS5003;23175;-33.706;151.094;2022-07-29T04:03:15;2;0;
37290;PMS5003;23175;-33.706;151.094;2022-07-29T04:05:45;0;0;
37290;PMS5003;23175;-33.706;151.094;2022-07-29T04:08:29;0;0;
37290;PMS5003;23175;-33.706;151.094;2022-07-29T04:11:00;1;1;
37290;PMS5003;23175;-33.706;151.094;2022-07-29T04:13:32;0;0;
37290;PMS5003;23175;-33.706;151.094;2022-07-29T04:16:02;2;0;
37290;PMS5003;23175;-33.706;151.094;2022-07-29T04:18:32;2;2;
37290;PMS5003;23175;-33.706;151.094;2022-07-29T04:21:02;0;0;
37290;PMS5003;23175;-33.706;151.094;2022-07-29T04:23:33;0;0;
37290;PMS5003;23175;-33.706;151.094;2022-07-29T04:26:03;1;1;
37290;PMS5003;23175;-33.706;151.094;2022-07-29T04:28:33;0;0;
37290;PMS5003;23175;-33.706;151.094;2022-07-29T04:31:04;0;0;
37290;PMS5003;23175;-33.706;151.094;2022-07-29T04:33:33;2;2;
37290;PMS5003;23175;-33.706;151.094;2022-07-29T04:36:04;1;1;
37290;PMS5003;23175;-33.706;151.094;2022-07-29T04:38:34;1;1;
37290;PMS5003;23175;-33.706;151.094;2022-07-29T04:41:04;0;0;
37290;PMS5003;23175;-33.706;151.094;2022-07-29T04:43:34;4;1;
37290;PMS5003;23175;-33.706;151.094;2022-07-29T04:46:05;0;0;
37290;PMS5003;23175;-33.706;151.094;2022-07-29T04:48:36;1;1;
37290;PMS5003;23175;-33.706;151.094;2022-07-29T04:51:06;1;1;
37290;PMS5003;23175;-33.706;151.094;2022-07-29T04:53:36;1;1;
37290;PMS5003;23175;-33.706;151.094;2022-07-29T04:56:07;0;0;
37290;PMS5003;23175;-33.706;151.094;2022-07-29T04:58:37;3;2;
37290;PMS5003;23175;-33.706;151.094;2022-07-29T05:01:07;6;3;
37290;PMS5003;23175;-33.706;151.094;2022-07-29T05:03:37;2;1;
37290;PMS5003;23175;-33.706;151.094;2022-07-29T05:06:07;2;1;
37290;PMS5003;23175;-33.706;151.094;2022-07-29T05:08:38;1;0;
37290;PMS5003;23175;-33.706;151.094;2022-07-29T05:11:08;3;1;
37290;PMS5003;23175;-33.706;151.094;2022-07-29T05:13:38;1;1;
37290;PMS5003;23175;-33.706;151.094;2022-07-29T05:16:08;3;1;
37290;PMS5003;23175;-33.706;151.094;2022-07-29T05:18:38;2;2;
37290;PMS5003;23175;-33.706;151.094;2022-07-29T05:21:08;2;2;
37290;PMS5003;23175;-33.706;151.094;2022-07-29T05:23:39;1;1;
37290;PMS5003;23175;-33.706;151.094;2022-07-29T05:26:09;1;1;
37290;PMS5003;23175;-33.706;151.094;2022-07-29T05:28:39;2;2;
37290;PMS5003;23175;-33.706;151.094;2022-07-29T05:31:09;1;1;
37290;PMS5003;23175;-33.706;151.094;2022-07-29T05:33:40;1;1;
37290;PMS5003;23175;-33.706;151.094;2022-07-29T05:36:10;2;2;
37290;PMS5003;23175;-33.706;151.094;2022-07-29T05:38:40;2;2;
37290;PMS5003;23175;-33.706;151.094;2022-07-29T05:41:11;3;3;
37290;PMS5003;23175;-33.706;151.094;2022-07-29T05:43:41;1;1;
37290;PMS5003;23175;-33.706;151.094;2022-07-29T05:46:11;2;2;
37290;PMS5003;23175;-33.706;151.094;2022-07-29T05:48:42;4;2;
37290;PMS5003;23175;-33.706;151.094;2022-07-29T05:51:11;1;1;
37290;PMS5003;23175;-33.706;151.094;2022-07-29T05:53:42;6;1;
37290;PMS5003;23175;-33.706;151.094;2022-07-29T05:56:12;3;3;
37290;PMS5003;23175;-33.706;151.094;2022-07-29T05:58:42;8;3;
37290;PMS5003;23175;-33.706;151.094;2022-07-29T06:01:13;3;2;
37290;PMS5003;23175;-33.706;151.094;2022-07-29T06:03:43;3;3;
37290;PMS5003;23175;-33.706;151.094;2022-07-29T06:06:13;8;7;
37290;PMS5003;23175;-33.706;151.094;2022-07-29T06:08:44;7;7;
37290;PMS5003;23175;-33.706;151.094;2022-07-29T06:11:14;4;1;
37290;PMS5003;23175;-33.706;151.094;2022-07-29T06:13:45;1;1;
37290;PMS5003;23175;-33.706;151.094;2022-07-29T06:16:15;2;2;
37290;PMS5003;23175;-33.706;151.094;2022-07-29T06:18:45;2;1;
37290;PMS5003;23175;-33.706;151.094;2022-07-29T06:21:16;1;1;
37290;PMS5003;23175;-33.706;151.094;2022-07-29T06:23:47;2;2;
37290;PMS5003;23175;-33.706;151.094;2022-07-29T06:26:16;5;2;
37290;PMS5003;23175;-33.706;151.094;2022-07-29T06:28:47;1;1;
37290;PMS5003;23175;-33.706;151.094;2022-07-29T06:31:17;3;2;
37290;PMS5003;23175;-33.706;151.094;2022-07-29T06:33:48;1;1;
37290;PMS5003;23175;-33.706;151.094;2022-07-29T06:36:18;1;1;
37290;PMS5003;23175;-33.706;151.094;2022-07-29T06:38:48;4;2;
37290;PMS5003;23175;-33.706;151.094;2022-07-29T06:41:19;1;1;
37290;PMS5003;23175;-33.706;151.094;2022-07-29T06:43:49;3;2;
37290;PMS5003;23175;-33.706;151.094;2022-07-29T06:46:20;3;1;
37290;PMS5003;23175;-33.706;151.094;2022-07-29T06:48:50;1;1;
37290;PMS5003;23175;-33.706;151.094;2022-07-29T06:51:20;1;1;
37290;PMS5003;23175;-33.706;151.094;2022-07-29T06:53:51;1;1;
37290;PMS5003;23175;-33.706;151.094;2022-07-29T06:56:21;1;1;
37290;PMS5003;23175;-33.706;151.094;2022-07-29T06:58:52;5;2;
37290;PMS5003;23175;-33.706;151.094;2022-07-29T07:01:22;2;1;
37290;PMS5003;23175;-33.706;151.094;2022-07-29T07:03:51;3;1;
37290;PMS5003;23175;-33.706;151.094;2022-07-29T07:06:22;4;2;
37290;PMS5003;23175;-33.706;151.094;2022-07-29T07:08:52;3;1;
37290;PMS5003;23175;-33.706;151.094;2022-07-29T07:11:22;1;1;
37290;PMS5003;23175;-33.706;151.094;2022-07-29T07:13:53;0;0;
37290;PMS5003;23175;-33.706;151.094;2022-07-29T07:16:23;4;3;
37290;PMS5003;23175;-33.706;151.094;2022-07-29T07:18:54;1;1;
37290;PMS5003;23175;-33.706;151.094;2022-07-29T07:21:23;3;2;
37290;PMS5003;23175;-33.706;151.094;2022-07-29T07:23:58;4;1;
37290;PMS5003;23175;-33.706;151.094;2022-07-29T07:26:31;2;1;
37290;PMS5003;23175;-33.706;151.094;2022-07-29T07:29:01;4;3;
37290;PMS5003;23175;-33.706;151.094;2022-07-29T07:31:32;6;3;
37290;PMS5003;23175;-33.706;151.094;2022-07-29T07:34:04;4;4;
37290;PMS5003;23175;-33.706;151.094;2022-07-29T07:36:33;8;5;
37290;PMS5003;23175;-33.706;151.094;2022-07-29T07:39:03;6;5;
37290;PMS5003;23175;-33.706;151.094;2022-07-29T07:41:34;14;14;
37290;PMS5003;23175;-33.706;151.094;2022-07-29T07:44:04;25;20;
37290;PMS5003;23175;-33.706;151.094;2022-07-29T07:46:34;14;11;
37290;PMS5003;23175;-33.706;151.094;2022-07-29T07:49:05;14;12;
37290;PMS5003;23175;-33.706;151.094;2022-07-29T07:51:34;17;17;
37290;PMS5003;23175;-33.706;151.094;2022-07-29T07:54:05;16;15;
37290;PMS5003;23175;-33.706;151.094;2022-07-29T07:56:35;16;13;
37290;PMS5003;23175;-33.706;151.094;2022-07-29T07:59:05;10;8;
37290;PMS5003;23175;-33.706;151.094;2022-07-29T08:01:35;12;12;
37290;PMS5003;23175;-33.706;151.094;2022-07-29T08:04:06;15;11;
37290;PMS5003;23175;-33.706;151.094;2022-07-29T08:06:36;14;11;
37290;PMS5003;23175;-33.706;151.094;2022-07-29T08:09:06;15;12;
37290;PMS5003;23175;-33.706;151.094;2022-07-29T08:11:36;16;13;
37290;PMS5003;23175;-33.706;151.094;2022-07-29T08:14:06;8;8;
37290;PMS5003;23175;-33.706;151.094;2022-07-29T08:16:36;11;11;
37290;PMS5003;23175;-33.706;151.094;2022-07-29T08:19:08;13;10;
37290;PMS5003;23175;-33.706;151.094;2022-07-29T08:21:37;11;8;
37290;PMS5003;23175;-33.706;151.094;2022-07-29T08:24:08;13;11;
37290;PMS5003;23175;-33.706;151.094;2022-07-29T08:26:38;14;12;
37290;PMS5003;23175;-33.706;151.094;2022-07-29T08:29:09;9;9;
37290;PMS5003;23175;-33.706;151.094;2022-07-29T08:31:40;16;9;
37290;PMS5003;23175;-33.706;151.094;2022-07-29T08:34:10;12;10;
37290;PMS5003;23175;-33.706;151.094;2022-07-29T08:36:39;10;9;
37290;PMS5003;23175;-33.706;151.094;2022-07-29T08:39:10;13;13;
37290;PMS5003;23175;-33.706;151.094;2022-07-29T08:41:40;8;8;
37290;PMS5003;23175;-33.706;151.094;2022-07-29T08:44:10;9;8;
37290;PMS5003;23175;-33.706;151.094;2022-07-29T08:46:41;12;12;
37290;PMS5003;23175;-33.706;151.094;2022-07-29T08:49:11;15;13;
37290;PMS5003;23175;-33.706;151.094;2022-07-29T08:51:41;11;11;
37290;PMS5003;23175;-33.706;151.094;2022-07-29T08:54:11;13;12;
37290;PMS5003;23175;-33.706;151.094;2022-07-29T08:56:48;17;12;
37290;PMS5003;23175;-33.706;151.094;2022-07-29T08:59:22;18;13;
37290;PMS5003;23175;-33.706;151.094;2022-07-29T09:01:54;14;12;
37290;PMS5003;23175;-33.706;151.094;2022-07-29T09:04:29;17;13;
37290;PMS5003;23175;-33.706;151.094;2022-07-29T09:07:02;16;15;
37290;PMS5003;23175;-33.706;151.094;2022-07-29T09:09:33;15;14;
37290;PMS5003;23175;-33.706;151.094;2022-07-29T09:12:04;15;15;
37290;PMS5003;23175;-33.706;151.094;2022-07-29T09:14:34;24;18;
37290;PMS5003;23175;-33.706;151.094;2022-07-29T09:17:05;26;19;
37290;PMS5003;23175;-33.706;151.094;2022-07-29T09:19:35;29;24;
37290;PMS5003;23175;-33.706;151.094;2022-07-29T09:22:06;23;20;
37290;PMS5003;23175;-33.706;151.094;2022-07-29T09:24:38;20;15;
37290;PMS5003;23175;-33.706;151.094;2022-07-29T09:27:10;23;20;
37290;PMS5003;23175;-33.706;151.094;2022-07-29T09:29:47;31;25;
37290;PMS5003;23175;-33.706;151.094;2022-07-29T09:32:24;21;17;
37290;PMS5003;23175;-33.706;151.094;2022-07-29T09:35:28;25;24;
37290;PMS5003;23175;-33.706;151.094;2022-07-29T09:37:58;30;24;
37290;PMS5003;23175;-33.706;151.094;2022-07-29T09:40:39;28;24;
37290;PMS5003;23175;-33.706;151.094;2022-07-29T09:43:23;25;25;
37290;PMS5003;23175;-33.706;151.094;2022-07-29T09:45:53;33;30;
37290;PMS5003;23175;-33.706;151.094;2022-07-29T09:48:24;27;24;
37290;PMS5003;23175;-33.706;151.094;2022-07-29T09:50:54;28;24;
37290;PMS5003;23175;-33.706;151.094;2022-07-29T09:53:32;22;18;
37290;PMS5003;23175;-33.706;151.094;2022-07-29T09:56:04;23;23;
37290;PMS5003;23175;-33.706;151.094;2022-07-29T09:58:34;26;24;
37290;PMS5003;23175;-33.706;151.094;2022-07-29T10:01:03;18;16;
37290;PMS5003;23175;-33.706;151.094;2022-07-29T10:03:33;24;21;
37290;PMS5003;23175;-33.706;151.094;2022-07-29T10:06:20;16;16;
37290;PMS5003;23175;-33.706;151.094;2022-07-29T10:08:51;18;15;
37290;PMS5003;23175;-33.706;151.094;2022-07-29T10:11:22;18;17;
37290;PMS5003;23175;-33.706;151.094;2022-07-29T10:13:52;20;17;
37290;PMS5003;23175;-33.706;151.094;2022-07-29T10:16:23;19;14;
37290;PMS5003;23175;-33.706;151.094;2022-07-29T10:18:53;20;18;
37290;PMS5003;23175;-33.706;151.094;2022-07-29T10:21:23;20;17;
37290;PMS5003;23175;-33.706;151.094;2022-07-29T10:23:54;22;21;
37290;PMS5003;23175;-33.706;151.094;2022-07-29T10:26:24;22;16;
37290;PMS5003;23175;-33.706;151.094;2022-07-29T10:28:54;23;21;
37290;PMS5003;23175;-33.706;151.094;2022-07-29T10:31:26;19;18;
37290;PMS5003;23175;-33.706;151.094;2022-07-29T10:34:07;22;17;
37290;PMS5003;23175;-33.706;151.094;2022-07-29T10:36:47;24;18;
37290;PMS5003;23175;-33.706;151.094;2022-07-29T10:39:37;23;18;
37290;PMS5003;23175;-33.706;151.094;2022-07-29T10:42:16;21;18;
37290;PMS5003;23175;-33.706;151.094;2022-07-29T10:44:48;21;16;
37290;PMS5003;23175;-33.706;151.094;2022-07-29T10:47:21;16;16;
37290;PMS5003;23175;-33.706;151.094;2022-07-29T10:49:59;21;18;
37290;PMS5003;23175;-33.706;151.094;2022-07-29T10:53:04;19;19;
37290;PMS5003;23175;-33.706;151.094;2022-07-29T10:55:35;27;21;
37290;PMS5003;23175;-33.706;151.094;2022-07-29T10:58:14;20;18;
37290;PMS5003;23175;-33.706;151.094;2022-07-29T11:00:45;26;20;
37290;PMS5003;23175;-33.706;151.094;2022-07-29T11:03:48;22;19;
37290;PMS5003;23175;-33.706;151.094;2022-07-29T11:06:19;27;21;
37290;PMS5003;23175;-33.706;151.094;2022-07-29T11:08:58;23;20;
37290;PMS5003;23175;-33.706;151.094;2022-07-29T11:11:45;21;18;
37290;PMS5003;23175;-33.706;151.094;2022-07-29T11:14:15;23;19;
37290;PMS5003;23175;-33.706;151.094;2022-07-29T11:17:02;30;26;
37290;PMS5003;23175;-33.706;151.094;2022-07-29T11:19:33;25;21;
37290;PMS5003;23175;-33.706;151.094;2022-07-29T11:22:04;24;20;
37290;PMS5003;23175;-33.706;151.094;2022-07-29T11:24:38;24;19;
37290;PMS5003;23175;-33.706;151.094;2022-07-29T11:27:09;21;18;
37290;PMS5003;23175;-33.706;151.094;2022-07-29T11:29:49;25;22;
37290;PMS5003;23175;-33.706;151.094;2022-07-29T11:32:22;29;21;
37290;PMS5003;23175;-33.706;151.094;2022-07-29T11:35:12;22;19;
37290;PMS5003;23175;-33.706;151.094;2022-07-29T11:37:44;28;21;
37290;PMS5003;23175;-33.706;151.094;2022-07-29T11:41:16;25;19;
37290;PMS5003;23175;-33.706;151.094;2022-07-29T11:43:52;20;17;
37290;PMS5003;23175;-33.706;151.094;2022-07-29T11:46:56;25;21;
37290;PMS5003;23175;-33.706;151.094;2022-07-29T11:49:26;22;18;
37290;PMS5003;23175;-33.706;151.094;2022-07-29T11:51:57;22;19;
37290;PMS5003;23175;-33.706;151.094;2022-07-29T11:54:30;19;17;
37290;PMS5003;23175;-33.706;151.094;2022-07-29T11:57:02;24;19;
37290;PMS5003;23175;-33.706;151.094;2022-07-29T11:59:39;20;18;
37290;PMS5003;23175;-33.706;151.094;2022-07-29T12:02:09;16;15;
37290;PMS5003;23175;-33.706;151.094;2022-07-29T12:04:48;23;17;
37290;PMS5003;23175;-33.706;151.094;2022-07-29T12:07:19;19;18;
37290;PMS5003;23175;-33.706;151.094;2022-07-29T12:09:56;21;20;
37290;PMS5003;23175;-33.706;151.094;2022-07-29T12:12:26;20;20;
37290;PMS5003;23175;-33.706;151.094;2022-07-29T12:14:56;28;24;
37290;PMS5003;23175;-33.706;151.094;2022-07-29T12:17:38;20;17;
37290;PMS5003;23175;-33.706;151.094;2022-07-29T12:20:08;18;16;
37290;PMS5003;23175;-33.706;151.094;2022-07-29T12:22:39;23;17;
37290;PMS5003;23175;-33.706;151.094;2022-07-29T12:25:10;24;17;
37290;PMS5003;23175;-33.706;151.094;2022-07-29T12:27:41;18;17;
37290;PMS5003;23175;-33.706;151.094;2022-07-29T12:30:12;18;17;
37290;PMS5003;23175;-33.706;151.094;2022-07-29T12:32:44;17;17;
37290;PMS5003;23175;-33.706;151.094;2022-07-29T12:35:15;16;14;
37290;PMS5003;23175;-33.706;151.094;2022-07-29T12:37:47;17;16;
37290;PMS5003;23175;-33.706;151.094;2022-07-29T12:40:18;14;13;
37290;PMS5003;23175;-33.706;151.094;2022-07-29T12:43:06;19;18;
37290;PMS5003;23175;-33.706;151.094;2022-07-29T12:45:38;18;16;
37290;PMS5003;23175;-33.706;151.094;2022-07-29T12:48:10;17;15;
37290;PMS5003;23175;-33.706;151.094;2022-07-29T12:50:57;18;14;
37290;PMS5003;23175;-33.706;151.094;2022-07-29T12:53:28;14;14;
37290;PMS5003;23175;-33.706;151.094;2022-07-29T12:55:58;16;14;
37290;PMS5003;23175;-33.706;151.094;2022-07-29T12:58:31;17;17;
37290;PMS5003;23175;-33.706;151.094;2022-07-29T13:01:04;18;17;
37290;PMS5003;23175;-33.706;151.094;2022-07-29T13:03:48;17;14;
37290;PMS5003;23175;-33.706;151.094;2022-07-29T13:06:37;16;15;
37290;PMS5003;23175;-33.706;151.094;2022-07-29T13:09:10;20;15;
37290;PMS5003;23175;-33.706;151.094;2022-07-29T13:11:41;20;15;
37290;PMS5003;23175;-33.706;151.094;2022-07-29T13:14:13;17;16;
37290;PMS5003;23175;-33.706;151.094;2022-07-29T13:17:01;15;15;
37290;PMS5003;23175;-33.706;151.094;2022-07-29T13:19:33;12;12;
37290;PMS5003;23175;-33.706;151.094;2022-07-29T13:22:04;16;16;
37290;PMS5003;23175;-33.706;151.094;2022-07-29T13:24:45;14;14;
37290;PMS5003;23175;-33.706;151.094;2022-07-29T13:27:17;14;14;
37290;PMS5003;23175;-33.706;151.094;2022-07-29T13:29:48;20;16;
37290;PMS5003;23175;-33.706;151.094;2022-07-29T13:32:20;21;16;
37290;PMS5003;23175;-33.706;151.094;2022-07-29T13:34:51;15;15;
37290;PMS5003;23175;-33.706;151.094;2022-07-29T13:37:21;19;15;
37290;PMS5003;23175;-33.706;151.094;2022-07-29T13:39:52;17;15;
37290;PMS5003;23175;-33.706;151.094;2022-07-29T13:42:23;18;18;
37290;PMS5003;23175;-33.706;151.094;2022-07-29T13:44:54;14;14;
37290;PMS5003;23175;-33.706;151.094;2022-07-29T13:47:23;15;13;
37290;PMS5003;23175;-33.706;151.094;2022-07-29T13:49:54;19;17;
37290;PMS5003;23175;-33.706;151.094;2022-07-29T13:52:24;21;18;
37290;PMS5003;23175;-33.706;151.094;2022-07-29T13:54:55;19;18;
37290;PMS5003;23175;-33.706;151.094;2022-07-29T13:57:25;18;15;
37290;PMS5003;23175;-33.706;151.094;2022-07-29T13:59:55;14;14;
37290;PMS5003;23175;-33.706;151.094;2022-07-29T14:02:25;14;14;
37290;PMS5003;23175;-33.706;151.094;2022-07-29T14:04:55;21;18;
37290;PMS5003;23175;-33.706;151.094;2022-07-29T14:07:25;16;16;
37290;PMS5003;23175;-33.706;151.094;2022-07-29T14:09:55;17;17;
37290;PMS5003;23175;-33.706;151.094;2022-07-29T14:12:25;18;14;
37290;PMS5003;23175;-33.706;151.094;2022-07-29T14:14:55;20;16;
37290;PMS5003;23175;-33.706;151.094;2022-07-29T14:17:25;19;17;
37290;PMS5003;23175;-33.706;151.094;2022-07-29T14:19:55;22;16;
37290;PMS5003;23175;-33.706;151.094;2022-07-29T14:22:25;21;19;
37290;PMS5003;23175;-33.706;151.094;2022-07-29T14:24:55;15;14;
37290;PMS5003;23175;-33.706;151.094;2022-07-29T14:27:25;16;15;
37290;PMS5003;23175;-33.706;151.094;2022-07-29T14:29:54;18;18;
37290;PMS5003;23175;-33.706;151.094;2022-07-29T14:32:25;16;14;
37290;PMS5003;23175;-33.706;151.094;2022-07-29T14:34:55;22;17;
37290;PMS5003;23175;-33.706;151.094;2022-07-29T14:37:25;16;15;
37290;PMS5003;23175;-33.706;151.094;2022-07-29T14:39:55;19;19;
37290;PMS5003;23175;-33.706;151.094;2022-07-29T14:42:25;21;15;
37290;PMS5003;23175;-33.706;151.094;2022-07-29T14:44:56;17;15;
37290;PMS5003;23175;-33.706;151.094;2022-07-29T14:47:25;22;15;
37290;PMS5003;23175;-33.706;151.094;2022-07-29T14:49:56;16;14;
37290;PMS5003;23175;-33.706;151.094;2022-07-29T14:52:25;21;18;
37290;PMS5003;23175;-33.706;151.094;2022-07-29T14:54:55;16;15;
37290;PMS5003;23175;-33.706;151.094;2022-07-29T14:57:25;22;19;
37290;PMS5003;23175;-33.706;151.094;2022-07-29T14:59:55;14;14;
37290;PMS5003;23175;-33.706;151.094;2022-07-29T15:02:25;20;18;
37290;PMS5003;23175;-33.706;151.094;2022-07-29T15:04:55;17;16;
37290;PMS5003;23175;-33.706;151.094;2022-07-29T15:07:24;20;16;
37290;PMS5003;23175;-33.706;151.094;2022-07-29T15:09:55;20;17;
37290;PMS5003;23175;-33.706;151.094;2022-07-29T15:12:25;20;15;
37290;PMS5003;23175;-33.706;151.094;2022-07-29T15:14:54;26;20;
37290;PMS5003;23175;-33.706;151.094;2022-07-29T15:17:25;20;20;
37290;PMS5003;23175;-33.706;151.094;2022-07-29T15:19:55;23;16;
37290;PMS5003;23175;-33.706;151.094;2022-07-29T15:22:25;21;16;
37290;PMS5003;23175;-33.706;151.094;2022-07-29T15:24:55;18;16;
37290;PMS5003;23175;-33.706;151.094;2022-07-29T15:27:25;19;17;
37290;PMS5003;23175;-33.706;151.094;2022-07-29T15:29:55;17;14;
37290;PMS5003;23175;-33.706;151.094;2022-07-29T15:32:24;16;15;
37290;PMS5003;23175;-33.706;151.094;2022-07-29T15:34:55;19;17;
37290;PMS5003;23175;-33.706;151.094;2022-07-29T15:37:25;16;13;
37290;PMS5003;23175;-33.706;151.094;2022-07-29T15:39:55;19;18;
37290;PMS5003;23175;-33.706;151.094;2022-07-29T15:42:24;17;14;
37290;PMS5003;23175;-33.706;151.094;2022-07-29T15:44:54;17;14;
37290;PMS5003;23175;-33.706;151.094;2022-07-29T15:47:24;20;16;
37290;PMS5003;23175;-33.706;151.094;2022-07-29T15:49:53;21;17;
37290;PMS5003;23175;-33.706;151.094;2022-07-29T15:52:24;23;16;
37290;PMS5003;23175;-33.706;151.094;2022-07-29T15:54:54;21;17;
37290;PMS5003;23175;-33.706;151.094;2022-07-29T15:57:25;16;15;
37290;PMS5003;23175;-33.706;151.094;2022-07-29T15:59:55;13;13;
37290;PMS5003;23175;-33.706;151.094;2022-07-29T16:02:24;14;14;
37290;PMS5003;23175;-33.706;151.094;2022-07-29T16:04:54;17;14;
37290;PMS5003;23175;-33.706;151.094;2022-07-29T16:07:24;18;13;
37290;PMS5003;23175;-33.706;151.094;2022-07-29T16:09:54;13;12;
37290;PMS5003;23175;-33.706;151.094;2022-07-29T16:12:24;13;12;
37290;PMS5003;23175;-33.706;151.094;2022-07-29T16:14:53;15;14;
37290;PMS5003;23175;-33.706;151.094;2022-07-29T16:17:23;15;14;
37290;PMS5003;23175;-33.706;151.094;2022-07-29T16:19:53;18;17;